METAR Data
IDs: Format: Raw Decoded Include TAF

Data at: 0716 UTC 01 Aug 2021

LBSF 010700Z VRB02KT CAVOK 23/18 Q1016 NOSIG